sensor_id;sensor_type;location;lat;lon;timestamp;pressure;altitude;pressure_sealevel;temperature;humidity
8059;BME280;75058;42.668;23.396;2024-02-04T00:01:30;95568.03;;;2.04;62.74
8059;BME280;75058;42.668;23.396;2024-02-04T00:04:00;95568.69;;;2.71;62.18
8059;BME280;75058;42.668;23.396;2024-02-04T00:06:28;95560.63;;;2.33;62.24
8059;BME280;75058;42.668;23.396;2024-02-04T00:08:56;95562.41;;;2.73;61.60
8059;BME280;75058;42.668;23.396;2024-02-04T00:11:24;95568.53;;;2.88;61.08
8059;BME280;75058;42.668;23.396;2024-02-04T00:13:52;95563.88;;;3.31;60.07
8059;BME280;75058;42.668;23.396;2024-02-04T00:16:20;95555.47;;;3.98;59.78
8059;BME280;75058;42.668;23.396;2024-02-04T00:18:48;95543.28;;;5.18;58.57
8059;BME280;75058;42.668;23.396;2024-02-04T00:21:18;95548.19;;;6.22;56.31
8059;BME280;75058;42.668;23.396;2024-02-04T00:23:46;95548.53;;;6.61;55.00
8059;BME280;75058;42.668;23.396;2024-02-04T00:26:14;95546.88;;;7.37;53.87
8059;BME280;75058;42.668;23.396;2024-02-04T00:28:42;95537.22;;;7.65;53.12
8059;BME280;75058;42.668;23.396;2024-02-04T00:31:10;95551.75;;;8.00;51.66
8059;BME280;75058;42.668;23.396;2024-02-04T00:33:38;95540.81;;;8.18;51.72
8059;BME280;75058;42.668;23.396;2024-02-04T00:36:06;95549.09;;;8.41;50.95
8059;BME280;75058;42.668;23.396;2024-02-04T00:38:36;95545.50;;;8.48;50.50
8059;BME280;75058;42.668;23.396;2024-02-04T00:41:04;95548.31;;;8.53;50.54
8059;BME280;75058;42.668;23.396;2024-02-04T00:43:32;95532.66;;;8.53;50.74
8059;BME280;75058;42.668;23.396;2024-02-04T00:46:00;95542.31;;;8.53;50.64
8059;BME280;75058;42.668;23.396;2024-02-04T00:48:28;95544.50;;;8.49;50.61
8059;BME280;75058;42.668;23.396;2024-02-04T00:50:56;95542.28;;;8.33;51.14
8059;BME280;75058;42.668;23.396;2024-02-04T00:53:24;95532.06;;;8.58;50.57
8059;BME280;75058;42.668;23.396;2024-02-04T00:55:56;95535.50;;;8.72;50.52
8059;BME280;75058;42.668;23.396;2024-02-04T00:58:24;95537.28;;;8.65;50.60
8059;BME280;75058;42.668;23.396;2024-02-04T01:00:51;95539.69;;;8.73;50.38
8059;BME280;75058;42.668;23.396;2024-02-04T01:03:19;95542.31;;;8.60;50.83
8059;BME280;75058;42.668;23.396;2024-02-04T01:05:48;95533.47;;;8.61;50.75
8059;BME280;75058;42.668;23.396;2024-02-04T01:08:16;95537.09;;;8.73;51.10
8059;BME280;75058;42.668;23.396;2024-02-04T01:10:44;95538.50;;;8.69;50.91
8059;BME280;75058;42.668;23.396;2024-02-04T01:13:13;95541.09;;;8.55;51.19
8059;BME280;75058;42.668;23.396;2024-02-04T01:15:41;95532.25;;;8.50;51.12
8059;BME280;75058;42.668;23.396;2024-02-04T01:18:09;95541.72;;;8.51;51.04
8059;BME280;75058;42.668;23.396;2024-02-04T01:20:37;95539.38;;;8.15;51.39
8059;BME280;75058;42.668;23.396;2024-02-04T01:23:05;95533.91;;;6.81;53.61
8059;BME280;75058;42.668;23.396;2024-02-04T01:25:33;95540.00;;;7.29;53.32
8059;BME280;75058;42.668;23.396;2024-02-04T01:28:03;95541.28;;;6.57;54.38
8059;BME280;75058;42.668;23.396;2024-02-04T01:30:32;95534.03;;;7.29;54.94
8059;BME280;75058;42.668;23.396;2024-02-04T01:33:00;95527.78;;;7.64;53.47
8059;BME280;75058;42.668;23.396;2024-02-04T01:35:28;95527.47;;;7.80;53.33
8059;BME280;75058;42.668;23.396;2024-02-04T01:37:57;95524.38;;;8.24;52.77
8059;BME280;75058;42.668;23.396;2024-02-04T01:40:24;95526.25;;;8.69;51.68
8059;BME280;75058;42.668;23.396;2024-02-04T01:42:52;95523.03;;;8.61;51.83
8059;BME280;75058;42.668;23.396;2024-02-04T01:45:20;95524.84;;;8.60;52.00
8059;BME280;75058;42.668;23.396;2024-02-04T01:47:50;95519.44;;;8.62;51.72
8059;BME280;75058;42.668;23.396;2024-02-04T01:50:19;95512.81;;;8.52;51.91
8059;BME280;75058;42.668;23.396;2024-02-04T01:52:48;95520.22;;;8.29;52.20
8059;BME280;75058;42.668;23.396;2024-02-04T01:55:16;95508.72;;;8.24;53.16
8059;BME280;75058;42.668;23.396;2024-02-04T01:57:47;95515.38;;;8.26;52.53
8059;BME280;75058;42.668;23.396;2024-02-04T02:00:15;95521.25;;;8.61;51.68
8059;BME280;75058;42.668;23.396;2024-02-04T02:02:46;95508.59;;;8.65;52.30
8059;BME280;75058;42.668;23.396;2024-02-04T02:05:15;95519.84;;;8.85;51.54
8059;BME280;75058;42.668;23.396;2024-02-04T02:07:44;95514.22;;;8.88;51.76
8059;BME280;75058;42.668;23.396;2024-02-04T02:10:14;95517.84;;;8.74;52.05
8059;BME280;75058;42.668;23.396;2024-02-04T02:12:47;95507.63;;;8.72;52.30
8059;BME280;75058;42.668;23.396;2024-02-04T02:15:20;95512.19;;;8.90;51.81
8059;BME280;75058;42.668;23.396;2024-02-04T02:17:54;95506.16;;;9.09;51.49
8059;BME280;75058;42.668;23.396;2024-02-04T02:20:30;95488.09;;;9.14;51.21
8059;BME280;75058;42.668;23.396;2024-02-04T02:23:06;95500.56;;;8.92;51.70
8059;BME280;75058;42.668;23.396;2024-02-04T02:25:37;95482.13;;;8.81;51.93
8059;BME280;75058;42.668;23.396;2024-02-04T02:28:07;95500.97;;;9.02;51.74
8059;BME280;75058;42.668;23.396;2024-02-04T02:30:35;95492.72;;;9.12;51.60
8059;BME280;75058;42.668;23.396;2024-02-04T02:33:04;95493.06;;;9.22;50.91
8059;BME280;75058;42.668;23.396;2024-02-04T02:35:34;95494.25;;;9.32;50.90
8059;BME280;75058;42.668;23.396;2024-02-04T02:38:13;95490.88;;;9.32;50.76
8059;BME280;75058;42.668;23.396;2024-02-04T02:40:46;95490.22;;;9.43;50.79
8059;BME280;75058;42.668;23.396;2024-02-04T02:43:15;95490.84;;;9.45;50.56
8059;BME280;75058;42.668;23.396;2024-02-04T02:45:43;95492.72;;;9.69;50.05
8059;BME280;75058;42.668;23.396;2024-02-04T02:48:13;95482.31;;;9.56;50.36
8059;BME280;75058;42.668;23.396;2024-02-04T02:50:41;95484.53;;;9.66;49.99
8059;BME280;75058;42.668;23.396;2024-02-04T02:53:09;95473.91;;;9.54;50.27
8059;BME280;75058;42.668;23.396;2024-02-04T02:55:37;95475.75;;;9.47;50.23
8059;BME280;75058;42.668;23.396;2024-02-04T02:58:07;95484.28;;;9.74;49.66
8059;BME280;75058;42.668;23.396;2024-02-04T03:00:35;95481.34;;;9.51;50.16
8059;BME280;75058;42.668;23.396;2024-02-04T03:03:04;95479.72;;;9.56;50.03
8059;BME280;75058;42.668;23.396;2024-02-04T03:05:32;95495.50;;;9.30;50.70
8059;BME280;75058;42.668;23.396;2024-02-04T03:08:00;95475.59;;;9.36;50.35
8059;BME280;75058;42.668;23.396;2024-02-04T03:10:28;95490.91;;;9.06;51.27
8059;BME280;75058;42.668;23.396;2024-02-04T03:12:56;95482.25;;;9.18;50.83
8059;BME280;75058;42.668;23.396;2024-02-04T03:15:25;95480.22;;;9.33;50.30
8059;BME280;75058;42.668;23.396;2024-02-04T03:17:53;95476.16;;;9.44;50.28
8059;BME280;75058;42.668;23.396;2024-02-04T03:20:21;95460.97;;;9.28;50.46
8059;BME280;75058;42.668;23.396;2024-02-04T03:22:49;95464.78;;;9.19;50.64
8059;BME280;75058;42.668;23.396;2024-02-04T03:25:17;95463.16;;;9.18;50.82
8059;BME280;75058;42.668;23.396;2024-02-04T03:27:45;95464.09;;;9.43;50.18
8059;BME280;75058;42.668;23.396;2024-02-04T03:30:14;95455.44;;;9.49;50.02
8059;BME280;75058;42.668;23.396;2024-02-04T03:32:43;95471.00;;;9.24;50.60
8059;BME280;75058;42.668;23.396;2024-02-04T03:35:11;95467.66;;;8.98;51.46
8059;BME280;75058;42.668;23.396;2024-02-04T03:37:39;95462.44;;;8.91;51.54
8059;BME280;75058;42.668;23.396;2024-02-04T03:40:08;95454.16;;;9.14;51.26
8059;BME280;75058;42.668;23.396;2024-02-04T03:42:36;95454.78;;;8.96;51.54
8059;BME280;75058;42.668;23.396;2024-02-04T03:45:05;95464.66;;;8.75;52.31
8059;BME280;75058;42.668;23.396;2024-02-04T03:47:33;95458.22;;;8.64;51.89
8059;BME280;75058;42.668;23.396;2024-02-04T03:50:03;95446.00;;;8.78;52.36
8059;BME280;75058;42.668;23.396;2024-02-04T03:52:31;95438.97;;;8.85;51.88
8059;BME280;75058;42.668;23.396;2024-02-04T03:54:59;95446.50;;;9.19;51.17
8059;BME280;75058;42.668;23.396;2024-02-04T03:57:27;95446.19;;;8.89;51.94
8059;BME280;75058;42.668;23.396;2024-02-04T03:59:56;95445.78;;;8.86;52.05
8059;BME280;75058;42.668;23.396;2024-02-04T04:02:23;95447.09;;;9.27;51.11
8059;BME280;75058;42.668;23.396;2024-02-04T04:04:51;95447.50;;;9.18;51.08
8059;BME280;75058;42.668;23.396;2024-02-04T04:07:21;95456.22;;;8.73;52.50
8059;BME280;75058;42.668;23.396;2024-02-04T04:09:49;95462.31;;;9.37;51.36
8059;BME280;75058;42.668;23.396;2024-02-04T04:12:17;95468.41;;;9.05;51.94
8059;BME280;75058;42.668;23.396;2024-02-04T04:14:45;95469.09;;;8.68;52.74
8059;BME280;75058;42.668;23.396;2024-02-04T04:17:13;95464.25;;;8.84;52.17
8059;BME280;75058;42.668;23.396;2024-02-04T04:19:41;95466.41;;;9.00;52.03
8059;BME280;75058;42.668;23.396;2024-02-04T04:22:09;95448.63;;;9.42;51.15
8059;BME280;75058;42.668;23.396;2024-02-04T04:24:39;95455.84;;;9.46;51.23
8059;BME280;75058;42.668;23.396;2024-02-04T04:27:07;95459.94;;;9.22;51.80
8059;BME280;75058;42.668;23.396;2024-02-04T04:29:35;95446.91;;;9.16;51.97
8059;BME280;75058;42.668;23.396;2024-02-04T04:32:04;95461.03;;;8.76;52.66
8059;BME280;75058;42.668;23.396;2024-02-04T04:34:32;95460.84;;;8.77;53.02
8059;BME280;75058;42.668;23.396;2024-02-04T04:37:00;95469.44;;;9.04;52.42
8059;BME280;75058;42.668;23.396;2024-02-04T04:39:28;95468.16;;;9.32;51.43
8059;BME280;75058;42.668;23.396;2024-02-04T04:41:57;95468.38;;;9.24;51.98
8059;BME280;75058;42.668;23.396;2024-02-04T04:44:25;95470.75;;;9.39;51.30
8059;BME280;75058;42.668;23.396;2024-02-04T04:46:53;95469.19;;;9.25;51.63
8059;BME280;75058;42.668;23.396;2024-02-04T04:49:21;95478.88;;;8.98;52.74
8059;BME280;75058;42.668;23.396;2024-02-04T04:51:49;95465.44;;;8.16;53.17
8059;BME280;75058;42.668;23.396;2024-02-04T04:54:17;95467.38;;;7.34;55.74
8059;BME280;75058;42.668;23.396;2024-02-04T04:56:45;95470.78;;;6.94;56.52
8059;BME280;75058;42.668;23.396;2024-02-04T04:59:15;95464.88;;;6.79;57.27
8059;BME280;75058;42.668;23.396;2024-02-04T05:01:46;95467.97;;;6.95;56.63
8059;BME280;75058;42.668;23.396;2024-02-04T05:04:16;95468.22;;;7.41;56.71
8059;BME280;75058;42.668;23.396;2024-02-04T05:06:45;95460.91;;;7.24;56.40
8059;BME280;75058;42.668;23.396;2024-02-04T05:09:13;95461.13;;;7.69;56.01
8059;BME280;75058;42.668;23.396;2024-02-04T05:11:41;95456.47;;;7.58;55.51
8059;BME280;75058;42.668;23.396;2024-02-04T05:14:09;95449.56;;;8.11;55.33
8059;BME280;75058;42.668;23.396;2024-02-04T05:16:39;95441.97;;;8.82;53.22
8059;BME280;75058;42.668;23.396;2024-02-04T05:19:07;95447.75;;;9.10;52.94
8059;BME280;75058;42.668;23.396;2024-02-04T05:21:37;95453.81;;;8.58;53.58
8059;BME280;75058;42.668;23.396;2024-02-04T05:24:06;95455.81;;;8.89;52.93
8059;BME280;75058;42.668;23.396;2024-02-04T05:26:34;95448.59;;;8.91;53.31
8059;BME280;75058;42.668;23.396;2024-02-04T05:29:02;95463.44;;;8.84;52.95
8059;BME280;75058;42.668;23.396;2024-02-04T05:31:29;95466.84;;;8.91;52.71
8059;BME280;75058;42.668;23.396;2024-02-04T05:33:59;95462.19;;;9.19;52.62
8059;BME280;75058;42.668;23.396;2024-02-04T05:36:27;95459.06;;;9.48;51.45
8059;BME280;75058;42.668;23.396;2024-02-04T05:38:55;95466.59;;;9.69;51.00
8059;BME280;75058;42.668;23.396;2024-02-04T05:41:23;95457.00;;;9.63;51.11
8059;BME280;75058;42.668;23.396;2024-02-04T05:43:50;95455.41;;;9.62;50.97
8059;BME280;75058;42.668;23.396;2024-02-04T05:46:19;95456.97;;;9.70;50.60
8059;BME280;75058;42.668;23.396;2024-02-04T05:48:47;95457.47;;;9.91;50.28
8059;BME280;75058;42.668;23.396;2024-02-04T05:51:17;95455.25;;;9.88;50.39
8059;BME280;75058;42.668;23.396;2024-02-04T05:53:45;95462.81;;;10.03;49.79
8059;BME280;75058;42.668;23.396;2024-02-04T05:56:13;95452.81;;;9.93;49.91
8059;BME280;75058;42.668;23.396;2024-02-04T05:58:41;95449.38;;;9.99;49.31
8059;BME280;75058;42.668;23.396;2024-02-04T06:01:09;95452.94;;;9.67;49.87
8059;BME280;75058;42.668;23.396;2024-02-04T06:03:37;95465.63;;;10.01;49.47
8059;BME280;75058;42.668;23.396;2024-02-04T06:06:06;95468.22;;;9.70;49.98
8059;BME280;75058;42.668;23.396;2024-02-04T06:08:35;95474.50;;;9.50;50.09
8059;BME280;75058;42.668;23.396;2024-02-04T06:11:03;95467.56;;;9.81;49.26
8059;BME280;75058;42.668;23.396;2024-02-04T06:13:31;95471.78;;;9.31;50.20
8059;BME280;75058;42.668;23.396;2024-02-04T06:15:59;95483.28;;;9.11;50.63
8059;BME280;75058;42.668;23.396;2024-02-04T06:18:27;95488.09;;;9.14;50.84
8059;BME280;75058;42.668;23.396;2024-02-04T06:20:56;95477.78;;;9.39;50.38
8059;BME280;75058;42.668;23.396;2024-02-04T06:23:24;95486.69;;;9.05;50.99
8059;BME280;75058;42.668;23.396;2024-02-04T06:25:53;95500.94;;;9.09;50.91
8059;BME280;75058;42.668;23.396;2024-02-04T06:28:21;95516.25;;;8.60;52.28
8059;BME280;75058;42.668;23.396;2024-02-04T06:30:49;95467.59;;;8.00;52.17
8059;BME280;75058;42.668;23.396;2024-02-04T06:33:17;95536.66;;;8.36;53.07
8059;BME280;75058;42.668;23.396;2024-02-04T06:35:46;95534.03;;;8.36;53.03
8059;BME280;75058;42.668;23.396;2024-02-04T06:38:13;95530.06;;;8.67;51.87
8059;BME280;75058;42.668;23.396;2024-02-04T06:40:41;95530.44;;;9.16;50.75
8059;BME280;75058;42.668;23.396;2024-02-04T06:43:11;95518.56;;;9.26;50.62
8059;BME280;75058;42.668;23.396;2024-02-04T06:45:39;95514.44;;;9.70;49.80
8059;BME280;75058;42.668;23.396;2024-02-04T06:48:07;95525.38;;;9.98;48.91
8059;BME280;75058;42.668;23.396;2024-02-04T06:50:36;95528.22;;;9.96;49.02
8059;BME280;75058;42.668;23.396;2024-02-04T06:53:05;95516.88;;;10.16;48.71
8059;BME280;75058;42.668;23.396;2024-02-04T06:55:33;95513.81;;;10.25;48.71
8059;BME280;75058;42.668;23.396;2024-02-04T06:58:01;95519.31;;;10.04;49.30
8059;BME280;75058;42.668;23.396;2024-02-04T07:00:30;95517.03;;;10.21;49.03
8059;BME280;75058;42.668;23.396;2024-02-04T07:02:58;95525.78;;;10.39;48.28
8059;BME280;75058;42.668;23.396;2024-02-04T07:05:26;95517.81;;;10.28;48.76
8059;BME280;75058;42.668;23.396;2024-02-04T07:07:54;95513.09;;;10.05;49.69
8059;BME280;75058;42.668;23.396;2024-02-04T07:10:22;95506.31;;;9.91;49.49
8059;BME280;75058;42.668;23.396;2024-02-04T07:12:50;95520.50;;;10.08;49.11
8059;BME280;75058;42.668;23.396;2024-02-04T07:15:18;95526.06;;;10.25;49.07
8059;BME280;75058;42.668;23.396;2024-02-04T07:17:47;95514.31;;;10.40;48.75
8059;BME280;75058;42.668;23.396;2024-02-04T07:20:15;95514.91;;;10.11;49.12
8059;BME280;75058;42.668;23.396;2024-02-04T07:22:43;95505.63;;;10.46;48.87
8059;BME280;75058;42.668;23.396;2024-02-04T07:25:11;95525.41;;;10.36;48.69
8059;BME280;75058;42.668;23.396;2024-02-04T07:27:40;95514.78;;;10.31;48.99
8059;BME280;75058;42.668;23.396;2024-02-04T07:30:08;95518.41;;;10.30;49.02
8059;BME280;75058;42.668;23.396;2024-02-04T07:32:36;95517.28;;;10.44;48.92
8059;BME280;75058;42.668;23.396;2024-02-04T07:35:07;95515.22;;;10.52;48.53
8059;BME280;75058;42.668;23.396;2024-02-04T07:37:36;95508.13;;;10.35;48.57
8059;BME280;75058;42.668;23.396;2024-02-04T07:40:04;95518.16;;;10.38;48.79
8059;BME280;75058;42.668;23.396;2024-02-04T07:42:34;95524.34;;;10.12;49.21
8059;BME280;75058;42.668;23.396;2024-02-04T07:45:03;95516.63;;;10.55;48.27
8059;BME280;75058;42.668;23.396;2024-02-04T07:47:35;95516.16;;;10.64;48.68
8059;BME280;75058;42.668;23.396;2024-02-04T07:50:04;95508.31;;;10.33;49.04
8059;BME280;75058;42.668;23.396;2024-02-04T07:52:34;95525.03;;;10.32;48.92
8059;BME280;75058;42.668;23.396;2024-02-04T07:55:03;95524.66;;;10.60;48.72
8059;BME280;75058;42.668;23.396;2024-02-04T07:57:31;95524.38;;;10.43;48.14
8059;BME280;75058;42.668;23.396;2024-02-04T07:59:59;95524.03;;;10.27;48.57
8059;BME280;75058;42.668;23.396;2024-02-04T08:02:30;95526.09;;;10.56;47.74
8059;BME280;75058;42.668;23.396;2024-02-04T08:04:59;95516.16;;;10.89;47.11
8059;BME280;75058;42.668;23.396;2024-02-04T08:07:27;95529.66;;;10.61;47.77
8059;BME280;75058;42.668;23.396;2024-02-04T08:09:57;95517.09;;;11.19;46.50
8059;BME280;75058;42.668;23.396;2024-02-04T08:12:25;95510.81;;;10.53;47.55
8059;BME280;75058;42.668;23.396;2024-02-04T08:14:53;95535.06;;;10.91;47.26
8059;BME280;75058;42.668;23.396;2024-02-04T08:17:21;95523.91;;;11.02;46.28
8059;BME280;75058;42.668;23.396;2024-02-04T08:19:49;95519.50;;;11.21;45.84
8059;BME280;75058;42.668;23.396;2024-02-04T08:22:17;95505.69;;;11.32;45.58
8059;BME280;75058;42.668;23.396;2024-02-04T08:24:46;95514.53;;;11.13;46.10
8059;BME280;75058;42.668;23.396;2024-02-04T08:27:16;95520.06;;;10.80;46.45
8059;BME280;75058;42.668;23.396;2024-02-04T08:29:44;95522.31;;;11.01;46.17
8059;BME280;75058;42.668;23.396;2024-02-04T08:32:12;95510.69;;;11.15;46.59
8059;BME280;75058;42.668;23.396;2024-02-04T08:34:40;95518.44;;;11.04;45.96
8059;BME280;75058;42.668;23.396;2024-02-04T08:37:08;95525.25;;;11.11;45.70
8059;BME280;75058;42.668;23.396;2024-02-04T08:39:36;95520.59;;;10.88;47.14
8059;BME280;75058;42.668;23.396;2024-02-04T08:42:05;95524.56;;;10.98;47.07
8059;BME280;75058;42.668;23.396;2024-02-04T08:44:34;95520.22;;;11.10;46.10
8059;BME280;75058;42.668;23.396;2024-02-04T08:47:06;95517.41;;;11.29;46.09
8059;BME280;75058;42.668;23.396;2024-02-04T08:49:37;95519.53;;;10.96;46.21
8059;BME280;75058;42.668;23.396;2024-02-04T08:52:05;95518.88;;;11.43;46.24
8059;BME280;75058;42.668;23.396;2024-02-04T08:54:33;95527.22;;;11.77;44.83
8059;BME280;75058;42.668;23.396;2024-02-04T08:57:01;95525.47;;;11.89;45.20
8059;BME280;75058;42.668;23.396;2024-02-04T08:59:29;95522.03;;;11.88;45.28
8059;BME280;75058;42.668;23.396;2024-02-04T09:01:59;95527.31;;;12.18;44.37
8059;BME280;75058;42.668;23.396;2024-02-04T09:04:27;95517.03;;;11.26;46.22
8059;BME280;75058;42.668;23.396;2024-02-04T09:06:55;95541.72;;;11.79;44.35
8059;BME280;75058;42.668;23.396;2024-02-04T09:09:23;95517.59;;;11.71;44.92
8059;BME280;75058;42.668;23.396;2024-02-04T09:11:51;95525.47;;;11.89;44.89
8059;BME280;75058;42.668;23.396;2024-02-04T09:14:19;95528.03;;;11.77;45.05
8059;BME280;75058;42.668;23.396;2024-02-04T09:16:47;95529.72;;;11.72;45.20
8059;BME280;75058;42.668;23.396;2024-02-04T09:19:16;95535.84;;;11.16;45.90
8059;BME280;75058;42.668;23.396;2024-02-04T09:21:45;95532.94;;;11.06;46.92
8059;BME280;75058;42.668;23.396;2024-02-04T09:24:13;95538.06;;;11.19;46.20
8059;BME280;75058;42.668;23.396;2024-02-04T09:26:41;95537.53;;;10.86;47.22
8059;BME280;75058;42.668;23.396;2024-02-04T09:29:09;95549.81;;;11.10;47.19
8059;BME280;75058;42.668;23.396;2024-02-04T09:31:37;95547.09;;;11.23;46.94
8059;BME280;75058;42.668;23.396;2024-02-04T09:34:06;95562.97;;;11.28;47.02
8059;BME280;75058;42.668;23.396;2024-02-04T09:36:35;95539.56;;;11.09;47.33
8059;BME280;75058;42.668;23.396;2024-02-04T09:39:04;95546.31;;;11.41;47.16
8059;BME280;75058;42.668;23.396;2024-02-04T09:41:33;95536.13;;;11.08;47.12
8059;BME280;75058;42.668;23.396;2024-02-04T09:44:02;95538.47;;;11.16;47.01
8059;BME280;75058;42.668;23.396;2024-02-04T09:46:30;95542.06;;;11.22;47.15
8059;BME280;75058;42.668;23.396;2024-02-04T09:48:58;95524.84;;;11.32;46.85
8059;BME280;75058;42.668;23.396;2024-02-04T09:51:30;95519.25;;;11.29;47.30
8059;BME280;75058;42.668;23.396;2024-02-04T09:54:03;95530.88;;;11.51;47.25
8059;BME280;75058;42.668;23.396;2024-02-04T09:56:34;95523.69;;;11.28;47.15
8059;BME280;75058;42.668;23.396;2024-02-04T09:59:04;95528.34;;;11.44;46.80
8059;BME280;75058;42.668;23.396;2024-02-04T10:01:32;95511.91;;;11.55;46.83
8059;BME280;75058;42.668;23.396;2024-02-04T10:04:00;95496.56;;;10.98;48.81
8059;BME280;75058;42.668;23.396;2024-02-04T10:06:28;95516.75;;;11.34;48.02
8059;BME280;75058;42.668;23.396;2024-02-04T10:08:57;95522.50;;;11.24;48.05
8059;BME280;75058;42.668;23.396;2024-02-04T10:11:26;95519.59;;;11.50;47.30
8059;BME280;75058;42.668;23.396;2024-02-04T10:13:54;95523.59;;;11.53;47.73
8059;BME280;75058;42.668;23.396;2024-02-04T10:16:23;95518.06;;;12.15;46.72
8059;BME280;75058;42.668;23.396;2024-02-04T10:18:51;95509.88;;;11.94;46.23
8059;BME280;75058;42.668;23.396;2024-02-04T10:21:21;95523.44;;;11.91;46.52
8059;BME280;75058;42.668;23.396;2024-02-04T10:23:50;95522.22;;;11.50;47.58
8059;BME280;75058;42.668;23.396;2024-02-04T10:26:19;95530.59;;;11.59;47.93
8059;BME280;75058;42.668;23.396;2024-02-04T10:28:49;95518.09;;;11.61;48.47
8059;BME280;75058;42.668;23.396;2024-02-04T10:31:19;95505.91;;;12.03;46.42
8059;BME280;75058;42.668;23.396;2024-02-04T10:33:47;95516.28;;;12.27;46.20
8059;BME280;75058;42.668;23.396;2024-02-04T10:36:15;95490.50;;;11.95;47.60
8059;BME280;75058;42.668;23.396;2024-02-04T10:38:43;95501.47;;;12.33;46.90
8059;BME280;75058;42.668;23.396;2024-02-04T10:41:14;95501.91;;;12.00;47.28
8059;BME280;75058;42.668;23.396;2024-02-04T10:43:43;95488.69;;;12.25;47.02
8059;BME280;75058;42.668;23.396;2024-02-04T10:46:19;95510.09;;;11.74;47.23
8059;BME280;75058;42.668;23.396;2024-02-04T10:48:53;95491.56;;;12.05;47.81
8059;BME280;75058;42.668;23.396;2024-02-04T10:51:24;95508.47;;;12.09;46.52
8059;BME280;75058;42.668;23.396;2024-02-04T10:53:54;95505.66;;;11.93;47.00
8059;BME280;75058;42.668;23.396;2024-02-04T10:56:30;95493.97;;;12.07;47.34
8059;BME280;75058;42.668;23.396;2024-02-04T10:58:58;95462.22;;;11.97;46.18
8059;BME280;75058;42.668;23.396;2024-02-04T11:01:31;95487.81;;;12.13;47.47
8059;BME280;75058;42.668;23.396;2024-02-04T11:04:00;95463.72;;;12.04;46.98
8059;BME280;75058;42.668;23.396;2024-02-04T11:06:31;95496.56;;;12.25;46.85
8059;BME280;75058;42.668;23.396;2024-02-04T11:09:00;95479.53;;;12.16;47.23
8059;BME280;75058;42.668;23.396;2024-02-04T11:11:30;95494.53;;;12.38;46.98
8059;BME280;75058;42.668;23.396;2024-02-04T11:14:00;95498.16;;;12.67;45.19
8059;BME280;75058;42.668;23.396;2024-02-04T11:16:46;95485.50;;;12.34;46.18
8059;BME280;75058;42.668;23.396;2024-02-04T11:19:25;95468.47;;;12.67;45.76
8059;BME280;75058;42.668;23.396;2024-02-04T11:22:20;95472.81;;;12.61;45.98
8059;BME280;75058;42.668;23.396;2024-02-04T11:25:03;95454.31;;;12.68;45.83
8059;BME280;75058;42.668;23.396;2024-02-04T11:27:36;95446.09;;;12.99;45.09
8059;BME280;75058;42.668;23.396;2024-02-04T11:30:05;95455.34;;;12.90;44.98
8059;BME280;75058;42.668;23.396;2024-02-04T11:32:36;95469.41;;;12.72;45.86
8059;BME280;75058;42.668;23.396;2024-02-04T11:35:04;95465.41;;;12.70;46.00
8059;BME280;75058;42.668;23.396;2024-02-04T11:37:36;95479.63;;;12.51;46.55
8059;BME280;75058;42.668;23.396;2024-02-04T11:40:05;95468.84;;;12.29;47.04
8059;BME280;75058;42.668;23.396;2024-02-04T11:42:33;95449.97;;;12.73;45.55
8059;BME280;75058;42.668;23.396;2024-02-04T11:45:08;95450.22;;;12.83;45.72
8059;BME280;75058;42.668;23.396;2024-02-04T11:47:38;95448.28;;;12.90;44.60
8059;BME280;75058;42.668;23.396;2024-02-04T11:50:07;95437.16;;;12.54;45.36
8059;BME280;75058;42.668;23.396;2024-02-04T11:52:39;95429.56;;;13.10;44.91
8059;BME280;75058;42.668;23.396;2024-02-04T11:55:14;95436.88;;;12.85;45.50
8059;BME280;75058;42.668;23.396;2024-02-04T11:57:43;95437.44;;;12.87;45.13
8059;BME280;75058;42.668;23.396;2024-02-04T12:00:13;95426.59;;;12.95;44.42
8059;BME280;75058;42.668;23.396;2024-02-04T12:02:44;95414.81;;;13.21;44.35
8059;BME280;75058;42.668;23.396;2024-02-04T12:05:12;95413.78;;;12.98;44.19
8059;BME280;75058;42.668;23.396;2024-02-04T12:07:41;95424.31;;;13.10;44.00
8059;BME280;75058;42.668;23.396;2024-02-04T12:10:10;95420.56;;;13.06;44.93
8059;BME280;75058;42.668;23.396;2024-02-04T12:12:39;95420.78;;;13.16;44.27
8059;BME280;75058;42.668;23.396;2024-02-04T12:15:08;95384.44;;;13.01;43.81
8059;BME280;75058;42.668;23.396;2024-02-04T12:17:37;95424.72;;;13.53;42.81
8059;BME280;75058;42.668;23.396;2024-02-04T12:20:07;95413.44;;;13.69;42.54
8059;BME280;75058;42.668;23.396;2024-02-04T12:22:36;95371.03;;;13.26;42.84
8059;BME280;75058;42.668;23.396;2024-02-04T12:25:05;95400.66;;;12.98;44.36
8059;BME280;75058;42.668;23.396;2024-02-04T12:27:34;95404.50;;;13.42;43.10
8059;BME280;75058;42.668;23.396;2024-02-04T12:30:03;95415.13;;;13.75;42.75
8059;BME280;75058;42.668;23.396;2024-02-04T12:32:33;95400.75;;;13.38;43.16
8059;BME280;75058;42.668;23.396;2024-02-04T12:35:07;95412.88;;;13.28;43.89
8059;BME280;75058;42.668;23.396;2024-02-04T12:37:36;95407.34;;;13.80;42.75
8059;BME280;75058;42.668;23.396;2024-02-04T12:40:05;95407.94;;;13.71;43.00
8059;BME280;75058;42.668;23.396;2024-02-04T12:42:33;95391.94;;;13.72;42.53
8059;BME280;75058;42.668;23.396;2024-02-04T12:45:02;95382.84;;;13.52;42.26
8059;BME280;75058;42.668;23.396;2024-02-04T12:47:30;95394.00;;;13.31;43.25
8059;BME280;75058;42.668;23.396;2024-02-04T12:49:59;95408.03;;;13.48;42.56
8059;BME280;75058;42.668;23.396;2024-02-04T12:52:30;95319.72;;;13.35;42.59
8059;BME280;75058;42.668;23.396;2024-02-04T12:55:02;95415.00;;;14.10;41.83
8059;BME280;75058;42.668;23.396;2024-02-04T12:57:31;95411.47;;;13.48;42.88
8059;BME280;75058;42.668;23.396;2024-02-04T13:00:06;95408.81;;;13.60;41.98
8059;BME280;75058;42.668;23.396;2024-02-04T13:02:35;95406.75;;;13.50;43.21
8059;BME280;75058;42.668;23.396;2024-02-04T13:05:03;95423.78;;;13.48;43.29
8059;BME280;75058;42.668;23.396;2024-02-04T13:07:33;95415.81;;;13.43;43.24
8059;BME280;75058;42.668;23.396;2024-02-04T13:10:01;95428.47;;;13.57;42.38
8059;BME280;75058;42.668;23.396;2024-02-04T13:12:29;95420.50;;;13.41;42.95
8059;BME280;75058;42.668;23.396;2024-02-04T13:14:59;95427.28;;;13.25;43.93